sensor_id;sensor_type;location;lat;lon;timestamp;pressure;altitude;pressure_sealevel;temperature;humidity
62708;BME280;48769;51.624;5.886;2023-04-27T00:00:36;101894.69;;;5.64;98.50
62708;BME280;48769;51.624;5.886;2023-04-27T00:03:02;101896.44;;;5.63;97.82
62708;BME280;48769;51.624;5.886;2023-04-27T00:05:38;101895.63;;;5.60;97.72
62708;BME280;48769;51.624;5.886;2023-04-27T00:08:06;101890.41;;;5.57;98.50
62708;BME280;48769;51.624;5.886;2023-04-27T00:10:33;101897.47;;;5.52;99.05
62708;BME280;48769;51.624;5.886;2023-04-27T00:12:58;101897.53;;;5.46;100.00
62708;BME280;48769;51.624;5.886;2023-04-27T00:15:24;101900.16;;;5.46;100.00
62708;BME280;48769;51.624;5.886;2023-04-27T00:17:49;101905.44;;;5.44;100.00
62708;BME280;48769;51.624;5.886;2023-04-27T00:20:15;101902.94;;;5.35;100.00
62708;BME280;48769;51.624;5.886;2023-04-27T00:22:41;101905.66;;;5.27;100.00
62708;BME280;48769;51.624;5.886;2023-04-27T00:25:07;101906.53;;;5.26;100.00
62708;BME280;48769;51.624;5.886;2023-04-27T00:27:32;101911.84;;;5.23;100.00
62708;BME280;48769;51.624;5.886;2023-04-27T00:29:57;101904.00;;;5.20;100.00
62708;BME280;48769;51.624;5.886;2023-04-27T00:32:23;101911.91;;;5.15;100.00
62708;BME280;48769;51.624;5.886;2023-04-27T00:34:48;101914.53;;;5.17;100.00
62708;BME280;48769;51.624;5.886;2023-04-27T00:37:13;101905.78;;;5.18;100.00
62708;BME280;48769;51.624;5.886;2023-04-27T00:39:39;101914.56;;;5.14;100.00
62708;BME280;48769;51.624;5.886;2023-04-27T00:42:04;101905.94;;;5.04;100.00
62708;BME280;48769;51.624;5.886;2023-04-27T00:44:30;101905.09;;;5.02;100.00
62708;BME280;48769;51.624;5.886;2023-04-27T00:46:57;101912.88;;;5.07;100.00
62708;BME280;48769;51.624;5.886;2023-04-27T00:49:22;101905.00;;;5.07;100.00
62708;BME280;48769;51.624;5.886;2023-04-27T00:51:47;101902.41;;;5.07;100.00
62708;BME280;48769;51.624;5.886;2023-04-27T00:54:18;101899.84;;;5.04;100.00
62708;BME280;48769;51.624;5.886;2023-04-27T00:56:44;101909.50;;;4.99;100.00
62708;BME280;48769;51.624;5.886;2023-04-27T00:59:09;101912.09;;;4.97;100.00
62708;BME280;48769;51.624;5.886;2023-04-27T01:01:38;101913.91;;;4.95;100.00
62708;BME280;48769;51.624;5.886;2023-04-27T01:04:04;101913.91;;;4.93;100.00
62708;BME280;48769;51.624;5.886;2023-04-27T01:06:29;101910.47;;;4.88;100.00
62708;BME280;48769;51.624;5.886;2023-04-27T01:08:56;101902.63;;;4.88;100.00
62708;BME280;48769;51.624;5.886;2023-04-27T01:11:21;101904.41;;;4.83;100.00
62708;BME280;48769;51.624;5.886;2023-04-27T01:13:46;101901.81;;;4.80;100.00
62708;BME280;48769;51.624;5.886;2023-04-27T01:16:11;101898.38;;;4.78;100.00
62708;BME280;48769;51.624;5.886;2023-04-27T01:18:37;101903.63;;;4.77;100.00
62708;BME280;48769;51.624;5.886;2023-04-27T01:21:05;101899.31;;;4.71;100.00
62708;BME280;48769;51.624;5.886;2023-04-27T01:23:30;101899.31;;;4.71;100.00
62708;BME280;48769;51.624;5.886;2023-04-27T01:25:55;101900.22;;;4.68;100.00
62708;BME280;48769;51.624;5.886;2023-04-27T01:28:20;101901.13;;;4.66;100.00
62708;BME280;48769;51.624;5.886;2023-04-27T01:30:46;101904.66;;;4.62;100.00
62708;BME280;48769;51.624;5.886;2023-04-27T01:33:11;101895.91;;;4.63;100.00
62708;BME280;48769;51.624;5.886;2023-04-27T01:35:36;101904.66;;;4.62;100.00
62708;BME280;48769;51.624;5.886;2023-04-27T01:38:02;101910.78;;;4.59;100.00
62708;BME280;48769;51.624;5.886;2023-04-27T01:40:27;101908.19;;;4.55;100.00
62708;BME280;48769;51.624;5.886;2023-04-27T01:42:53;101906.53;;;4.49;100.00
62708;BME280;48769;51.624;5.886;2023-04-27T01:45:18;101908.28;;;4.44;100.00
62708;BME280;48769;51.624;5.886;2023-04-27T01:47:43;101911.78;;;4.44;100.00
62708;BME280;48769;51.624;5.886;2023-04-27T01:50:09;101902.19;;;4.47;100.00
62708;BME280;48769;51.624;5.886;2023-04-27T01:52:34;101905.69;;;4.45;100.00
62708;BME280;48769;51.624;5.886;2023-04-27T01:55:00;101910.03;;;4.47;100.00
62708;BME280;48769;51.624;5.886;2023-04-27T01:57:25;101904.78;;;4.47;100.00
62708;BME280;48769;51.624;5.886;2023-04-27T01:59:51;101904.81;;;4.43;100.00
62708;BME280;48769;51.624;5.886;2023-04-27T02:02:16;101904.84;;;4.40;100.00
62708;BME280;48769;51.624;5.886;2023-04-27T02:04:41;101896.13;;;4.38;100.00
62708;BME280;48769;51.624;5.886;2023-04-27T02:07:07;101902.28;;;4.34;100.00
62708;BME280;48769;51.624;5.886;2023-04-27T02:09:33;101897.06;;;4.33;100.00
62708;BME280;48769;51.624;5.886;2023-04-27T02:11:58;101896.25;;;4.26;100.00
62708;BME280;48769;51.624;5.886;2023-04-27T02:14:23;101903.25;;;4.21;100.00
62708;BME280;48769;51.624;5.886;2023-04-27T02:16:48;101895.44;;;4.19;100.00
62708;BME280;48769;51.624;5.886;2023-04-27T02:19:14;101897.19;;;4.16;100.00
62708;BME280;48769;51.624;5.886;2023-04-27T02:21:39;101893.72;;;4.15;100.00
62708;BME280;48769;51.624;5.886;2023-04-27T02:24:05;101896.34;;;4.17;100.00
62708;BME280;48769;51.624;5.886;2023-04-27T02:26:30;101894.63;;;4.13;100.00
62708;BME280;48769;51.624;5.886;2023-04-27T02:28:56;101894.66;;;4.05;100.00
62708;BME280;48769;51.624;5.886;2023-04-27T02:31:22;101887.72;;;4.03;100.00
62708;BME280;48769;51.624;5.886;2023-04-27T02:33:47;101889.50;;;4.01;100.00
62708;BME280;48769;51.624;5.886;2023-04-27T02:36:12;101885.09;;;4.04;100.00
62708;BME280;48769;51.624;5.886;2023-04-27T02:38:38;101886.03;;;3.95;100.00
62708;BME280;48769;51.624;5.886;2023-04-27T02:41:03;101885.16;;;3.95;100.00
62708;BME280;48769;51.624;5.886;2023-04-27T02:43:28;101881.69;;;3.94;100.00
62708;BME280;48769;51.624;5.886;2023-04-27T02:45:54;101875.59;;;3.92;100.00
62708;BME280;48769;51.624;5.886;2023-04-27T02:48:19;101869.53;;;3.90;100.00
62708;BME280;48769;51.624;5.886;2023-04-27T02:50:44;101873.84;;;3.90;100.00
62708;BME280;48769;51.624;5.886;2023-04-27T02:53:10;101870.41;;;3.86;100.00
62708;BME280;48769;51.624;5.886;2023-04-27T02:55:36;101868.69;;;3.82;100.00
62708;BME280;48769;51.624;5.886;2023-04-27T02:58:02;101862.59;;;3.80;100.00
62708;BME280;48769;51.624;5.886;2023-04-27T03:00:28;101860.06;;;3.74;100.00
62708;BME280;48769;51.624;5.886;2023-04-27T03:02:53;101871.41;;;3.67;100.00
62708;BME280;48769;51.624;5.886;2023-04-27T03:05:18;101874.03;;;3.67;100.00
62708;BME280;48769;51.624;5.886;2023-04-27T03:07:44;101878.38;;;3.69;100.00
62708;BME280;48769;51.624;5.886;2023-04-27T03:10:09;101872.28;;;3.69;100.00
62708;BME280;48769;51.624;5.886;2023-04-27T03:12:35;101872.28;;;3.69;100.00
62708;BME280;48769;51.624;5.886;2023-04-27T03:15:00;101876.63;;;3.68;100.00
62708;BME280;48769;51.624;5.886;2023-04-27T03:17:26;101874.03;;;3.67;100.00
62708;BME280;48769;51.624;5.886;2023-04-27T03:19:51;101883.63;;;3.65;100.00
62708;BME280;48769;51.624;5.886;2023-04-27T03:22:17;101875.81;;;3.62;100.00
62708;BME280;48769;51.624;5.886;2023-04-27T03:24:42;101879.31;;;3.61;100.00
62708;BME280;48769;51.624;5.886;2023-04-27T03:27:08;101879.31;;;3.61;100.00
62708;BME280;48769;51.624;5.886;2023-04-27T03:29:33;101879.31;;;3.56;100.00
62708;BME280;48769;51.624;5.886;2023-04-27T03:31:58;101883.66;;;3.57;100.00
62708;BME280;48769;51.624;5.886;2023-04-27T03:34:23;101872.34;;;3.57;100.00
62708;BME280;48769;51.624;5.886;2023-04-27T03:36:49;101884.59;;;3.48;100.00
62708;BME280;48769;51.624;5.886;2023-04-27T03:39:15;101876.75;;;3.47;100.00
62708;BME280;48769;51.624;5.886;2023-04-27T03:41:40;101878.53;;;3.43;100.00
62708;BME280;48769;51.624;5.886;2023-04-27T03:44:05;101888.97;;;3.43;100.00
62708;BME280;48769;51.624;5.886;2023-04-27T03:46:31;101885.50;;;3.40;100.00
62708;BME280;48769;51.624;5.886;2023-04-27T03:48:56;101888.16;;;3.38;100.00
62708;BME280;48769;51.624;5.886;2023-04-27T03:51:21;101902.06;;;3.37;100.00
62708;BME280;48769;51.624;5.886;2023-04-27T03:53:47;101898.59;;;3.35;100.00
62708;BME280;48769;51.624;5.886;2023-04-27T03:56:12;101898.59;;;3.38;100.00
62708;BME280;48769;51.624;5.886;2023-04-27T03:58:38;101902.06;;;3.37;100.00
62708;BME280;48769;51.624;5.886;2023-04-27T04:01:03;101910.78;;;3.36;100.00
62708;BME280;48769;51.624;5.886;2023-04-27T04:03:29;101910.78;;;3.36;100.00
62708;BME280;48769;51.624;5.886;2023-04-27T04:05:54;101900.34;;;3.33;100.00
62708;BME280;48769;51.624;5.886;2023-04-27T04:08:20;101907.31;;;3.33;100.00
62708;BME280;48769;51.624;5.886;2023-04-27T04:10:45;101905.56;;;3.30;100.00
62708;BME280;48769;51.624;5.886;2023-04-27T04:13:11;101903.84;;;3.29;100.00
62708;BME280;48769;51.624;5.886;2023-04-27T04:15:36;101900.38;;;3.25;100.00
62708;BME280;48769;51.624;5.886;2023-04-27T04:18:02;101909.09;;;3.23;100.00
62708;BME280;48769;51.624;5.886;2023-04-27T04:20:27;101909.97;;;3.20;100.00
62708;BME280;48769;51.624;5.886;2023-04-27T04:22:53;101908.22;;;3.21;100.00
62708;BME280;48769;51.624;5.886;2023-04-27T04:25:18;101910.84;;;3.19;100.00
62708;BME280;48769;51.624;5.886;2023-04-27T04:27:44;101914.34;;;3.17;100.00
62708;BME280;48769;51.624;5.886;2023-04-27T04:30:10;101916.94;;;3.17;100.00
62708;BME280;48769;51.624;5.886;2023-04-27T04:32:36;101923.88;;;3.21;100.00
62708;BME280;48769;51.624;5.886;2023-04-27T04:35:03;101925.63;;;3.26;100.00
62708;BME280;48769;51.624;5.886;2023-04-27T04:37:34;101923.88;;;3.28;100.00
62708;BME280;48769;51.624;5.886;2023-04-27T04:40:03;101919.53;;;3.29;100.00
62708;BME280;48769;51.624;5.886;2023-04-27T04:42:33;101930.84;;;3.30;100.00
62708;BME280;48769;51.624;5.886;2023-04-27T04:44:58;101930.81;;;3.31;100.00
62708;BME280;48769;51.624;5.886;2023-04-27T04:47:23;101936.03;;;3.31;100.00
62708;BME280;48769;51.624;5.886;2023-04-27T04:49:48;101936.88;;;3.35;100.00
62708;BME280;48769;51.624;5.886;2023-04-27T04:52:14;101936.88;;;3.38;100.00
62708;BME280;48769;51.624;5.886;2023-04-27T04:54:39;101939.50;;;3.42;100.00
62708;BME280;48769;51.624;5.886;2023-04-27T04:57:05;101933.38;;;3.46;100.00
62708;BME280;48769;51.624;5.886;2023-04-27T04:59:32;101937.72;;;3.49;100.00
62708;BME280;48769;51.624;5.886;2023-04-27T05:01:58;101935.06;;;3.57;100.00
62708;BME280;48769;51.624;5.886;2023-04-27T05:04:23;101936.78;;;3.62;100.00
62708;BME280;48769;51.624;5.886;2023-04-27T05:06:48;101941.97;;;3.67;100.00
62708;BME280;48769;51.624;5.886;2023-04-27T05:09:14;101948.03;;;3.72;100.00
62708;BME280;48769;51.624;5.886;2023-04-27T05:11:39;101944.56;;;3.70;100.00
62708;BME280;48769;51.624;5.886;2023-04-27T05:14:05;101950.63;;;3.77;100.00
62708;BME280;48769;51.624;5.886;2023-04-27T05:16:30;101954.91;;;3.88;100.00
62708;BME280;48769;51.624;5.886;2023-04-27T05:18:55;101955.66;;;4.06;100.00
62708;BME280;48769;51.624;5.886;2023-04-27T05:21:21;101951.19;;;4.21;100.00
62708;BME280;48769;51.624;5.886;2023-04-27T05:23:46;101954.56;;;4.42;100.00
62708;BME280;48769;51.624;5.886;2023-04-27T05:26:16;101950.13;;;4.49;100.00
62708;BME280;48769;51.624;5.886;2023-04-27T05:28:42;101945.75;;;4.52;100.00
62708;BME280;48769;51.624;5.886;2023-04-27T05:31:08;101943.88;;;4.63;100.00
62708;BME280;48769;51.624;5.886;2023-04-27T05:33:33;101948.19;;;4.69;100.00
62708;BME280;48769;51.624;5.886;2023-04-27T05:35:58;101938.41;;;4.88;100.00
62708;BME280;48769;51.624;5.886;2023-04-27T05:38:24;101942.84;;;5.55;100.00
62708;BME280;48769;51.624;5.886;2023-04-27T05:40:54;101941.91;;;6.23;100.00
62708;BME280;48769;51.624;5.886;2023-04-27T05:43:20;101942.56;;;6.87;100.00
62708;BME280;48769;51.624;5.886;2023-04-27T05:45:46;101935.19;;;7.49;97.24
62708;BME280;48769;51.624;5.886;2023-04-27T05:48:11;101936.38;;;8.13;91.88
62708;BME280;48769;51.624;5.886;2023-04-27T05:50:38;101942.63;;;8.81;88.42
62708;BME280;48769;51.624;5.886;2023-04-27T05:53:03;101935.75;;;9.06;84.14
62708;BME280;48769;51.624;5.886;2023-04-27T05:55:30;101932.94;;;8.47;81.92
62708;BME280;48769;51.624;5.886;2023-04-27T05:57:55;101937.88;;;7.86;82.67
62708;BME280;48769;51.624;5.886;2023-04-27T06:00:20;101942.19;;;7.50;84.44
62708;BME280;48769;51.624;5.886;2023-04-27T06:02:46;101944.25;;;7.36;86.10
62708;BME280;48769;51.624;5.886;2023-04-27T06:05:12;101943.47;;;7.31;87.26
62708;BME280;48769;51.624;5.886;2023-04-27T06:07:37;101947.13;;;7.23;86.68
62708;BME280;48769;51.624;5.886;2023-04-27T06:10:04;101944.59;;;7.17;86.75
62708;BME280;48769;51.624;5.886;2023-04-27T06:12:29;101944.66;;;7.14;86.50
62708;BME280;48769;51.624;5.886;2023-04-27T06:14:54;101943.97;;;7.06;86.35
62708;BME280;48769;51.624;5.886;2023-04-27T06:17:20;101938.31;;;7.26;86.48
62708;BME280;48769;51.624;5.886;2023-04-27T06:19:46;101936.34;;;7.78;84.43
62708;BME280;48769;51.624;5.886;2023-04-27T06:22:11;101936.00;;;7.93;83.73
62708;BME280;48769;51.624;5.886;2023-04-27T06:24:36;101935.44;;;7.38;83.75
62708;BME280;48769;51.624;5.886;2023-04-27T06:27:02;101944.47;;;7.23;84.58
62708;BME280;48769;51.624;5.886;2023-04-27T06:29:27;101935.22;;;7.04;85.50
62708;BME280;48769;51.624;5.886;2023-04-27T06:31:52;101939.94;;;6.87;86.91
62708;BME280;48769;51.624;5.886;2023-04-27T06:34:18;101939.47;;;7.11;87.10
62708;BME280;48769;51.624;5.886;2023-04-27T06:36:43;101939.03;;;7.33;86.41
62708;BME280;48769;51.624;5.886;2023-04-27T06:39:08;101936.19;;;7.45;85.22
62708;BME280;48769;51.624;5.886;2023-04-27T06:41:34;101929.50;;;7.70;82.79
62708;BME280;48769;51.624;5.886;2023-04-27T06:43:59;101933.13;;;7.63;82.60
62708;BME280;48769;51.624;5.886;2023-04-27T06:46:24;101933.25;;;7.96;81.52
62708;BME280;48769;51.624;5.886;2023-04-27T06:48:50;101938.00;;;7.82;79.67
62708;BME280;48769;51.624;5.886;2023-04-27T06:51:16;101933.50;;;7.87;80.16
62708;BME280;48769;51.624;5.886;2023-04-27T06:53:42;101931.22;;;7.71;79.31
62708;BME280;48769;51.624;5.886;2023-04-27T06:56:10;101920.88;;;8.03;79.57
62708;BME280;48769;51.624;5.886;2023-04-27T06:58:36;101932.25;;;8.03;78.82
62708;BME280;48769;51.624;5.886;2023-04-27T07:01:02;101922.31;;;8.14;78.85
62708;BME280;48769;51.624;5.886;2023-04-27T07:03:28;101924.72;;;8.24;78.27
62708;BME280;48769;51.624;5.886;2023-04-27T07:05:54;101934.91;;;8.37;77.69
62708;BME280;48769;51.624;5.886;2023-04-27T07:08:21;101913.72;;;8.45;76.21
62708;BME280;48769;51.624;5.886;2023-04-27T07:10:46;101920.53;;;8.52;75.12
62708;BME280;48769;51.624;5.886;2023-04-27T07:13:12;101913.50;;;8.85;74.44
62708;BME280;48769;51.624;5.886;2023-04-27T07:15:37;101916.03;;;9.21;72.92
62708;BME280;48769;51.624;5.886;2023-04-27T07:18:02;101913.38;;;9.52;72.21
62708;BME280;48769;51.624;5.886;2023-04-27T07:20:28;101912.31;;;10.67;71.08
62708;BME280;48769;51.624;5.886;2023-04-27T07:22:54;101892.09;;;11.38;64.08
62708;BME280;48769;51.624;5.886;2023-04-27T07:25:19;101885.97;;;11.36;61.71
62708;BME280;48769;51.624;5.886;2023-04-27T07:27:45;101885.72;;;11.89;60.95
62708;BME280;48769;51.624;5.886;2023-04-27T07:30:11;101887.81;;;12.24;59.54
62708;BME280;48769;51.624;5.886;2023-04-27T07:32:39;101884.84;;;12.31;57.38
62708;BME280;48769;51.624;5.886;2023-04-27T07:35:05;101878.84;;;13.08;54.41
62708;BME280;48769;51.624;5.886;2023-04-27T07:37:31;101882.00;;;13.55;52.06
62708;BME280;48769;51.624;5.886;2023-04-27T07:39:56;101872.72;;;13.64;51.17
62708;BME280;48769;51.624;5.886;2023-04-27T07:42:23;101865.56;;;14.55;50.31
62708;BME280;48769;51.624;5.886;2023-04-27T07:44:49;101858.00;;;15.13;46.75
62708;BME280;48769;51.624;5.886;2023-04-27T07:47:15;101845.28;;;15.68;45.17
62708;BME280;48769;51.624;5.886;2023-04-27T07:49:43;101855.22;;;15.32;45.38
62708;BME280;48769;51.624;5.886;2023-04-27T07:52:10;101854.84;;;15.23;48.15
62708;BME280;48769;51.624;5.886;2023-04-27T07:54:35;101865.69;;;15.35;48.10
62708;BME280;48769;51.624;5.886;2023-04-27T07:57:07;101860.28;;;14.88;46.59
62708;BME280;48769;51.624;5.886;2023-04-27T07:59:33;101869.84;;;14.22;50.51
62708;BME280;48769;51.624;5.886;2023-04-27T08:01:58;101870.72;;;13.69;48.68
62708;BME280;48769;51.624;5.886;2023-04-27T08:04:23;101872.34;;;14.25;49.47
62708;BME280;48769;51.624;5.886;2023-04-27T08:06:49;101865.28;;;13.90;48.23
62708;BME280;48769;51.624;5.886;2023-04-27T08:09:14;101865.97;;;13.93;47.47
62708;BME280;48769;51.624;5.886;2023-04-27T08:11:39;101864.56;;;13.86;48.98
62708;BME280;48769;51.624;5.886;2023-04-27T08:14:05;101864.75;;;13.64;50.24
62708;BME280;48769;51.624;5.886;2023-04-27T08:16:33;101869.97;;;13.85;51.12
62708;BME280;48769;51.624;5.886;2023-04-27T08:18:58;101867.59;;;13.78;51.69
62708;BME280;48769;51.624;5.886;2023-04-27T08:21:23;101860.56;;;13.77;48.86
62708;BME280;48769;51.624;5.886;2023-04-27T08:23:48;101872.50;;;13.50;49.04
62708;BME280;48769;51.624;5.886;2023-04-27T08:26:14;101869.59;;;12.98;49.34
62708;BME280;48769;51.624;5.886;2023-04-27T08:28:40;101873.03;;;13.39;49.44
62708;BME280;48769;51.624;5.886;2023-04-27T08:31:06;101855.25;;;13.02;48.13
62708;BME280;48769;51.624;5.886;2023-04-27T08:33:31;101879.94;;;13.04;49.32
62708;BME280;48769;51.624;5.886;2023-04-27T08:35:56;101878.63;;;13.13;49.25
62708;BME280;48769;51.624;5.886;2023-04-27T08:38:21;101876.25;;;13.46;47.87
62708;BME280;48769;51.624;5.886;2023-04-27T08:40:47;101867.47;;;13.63;47.87
62708;BME280;48769;51.624;5.886;2023-04-27T08:43:12;101870.63;;;13.71;48.67
62708;BME280;48769;51.624;5.886;2023-04-27T08:45:38;101870.19;;;13.61;49.22
62708;BME280;48769;51.624;5.886;2023-04-27T08:48:03;101867.06;;;13.72;48.99
62708;BME280;48769;51.624;5.886;2023-04-27T08:50:29;101862.19;;;13.44;48.11
62708;BME280;48769;51.624;5.886;2023-04-27T08:52:55;101854.50;;;13.38;47.94
62708;BME280;48769;51.624;5.886;2023-04-27T08:55:21;101854.94;;;13.47;48.38
62708;BME280;48769;51.624;5.886;2023-04-27T08:57:53;101841.22;;;13.56;45.71
62708;BME280;48769;51.624;5.886;2023-04-27T09:00:20;101847.34;;;13.40;45.51
62708;BME280;48769;51.624;5.886;2023-04-27T09:02:46;101839.03;;;13.65;46.23
62708;BME280;48769;51.624;5.886;2023-04-27T09:05:19;101846.03;;;14.21;45.48
62708;BME280;48769;51.624;5.886;2023-04-27T09:07:58;101839.09;;;14.53;44.25
62708;BME280;48769;51.624;5.886;2023-04-27T09:10:25;101836.84;;;14.09;43.60
62708;BME280;48769;51.624;5.886;2023-04-27T09:12:58;101840.41;;;13.91;43.35
62708;BME280;48769;51.624;5.886;2023-04-27T09:15:24;101842.13;;;14.11;44.73
62708;BME280;48769;51.624;5.886;2023-04-27T09:17:55;101838.41;;;13.96;44.36
62708;BME280;48769;51.624;5.886;2023-04-27T09:20:21;101838.03;;;14.21;45.56
62708;BME280;48769;51.624;5.886;2023-04-27T09:22:51;101837.72;;;14.62;44.90
62708;BME280;48769;51.624;5.886;2023-04-27T09:25:29;101842.78;;;14.84;43.33
62708;BME280;48769;51.624;5.886;2023-04-27T09:27:56;101827.66;;;14.84;43.59
62708;BME280;48769;51.624;5.886;2023-04-27T09:30:22;101836.88;;;14.44;44.25
62708;BME280;48769;51.624;5.886;2023-04-27T09:32:50;101832.47;;;14.25;43.71
62708;BME280;48769;51.624;5.886;2023-04-27T09:35:28;101830.38;;;13.97;43.68
62708;BME280;48769;51.624;5.886;2023-04-27T09:37:54;101839.44;;;14.11;43.29
62708;BME280;48769;51.624;5.886;2023-04-27T09:40:24;101834.66;;;14.00;44.19
62708;BME280;48769;51.624;5.886;2023-04-27T09:42:55;101829.59;;;14.47;44.23
62708;BME280;48769;51.624;5.886;2023-04-27T09:45:24;101818.03;;;14.82;43.77
62708;BME280;48769;51.624;5.886;2023-04-27T09:47:50;101809.97;;;14.50;41.56
62708;BME280;48769;51.624;5.886;2023-04-27T09:50:15;101806.06;;;14.40;42.08
62708;BME280;48769;51.624;5.886;2023-04-27T09:52:41;101817.19;;;14.81;43.54
62708;BME280;48769;51.624;5.886;2023-04-27T09:55:15;101808.81;;;14.89;40.24
62708;BME280;48769;51.624;5.886;2023-04-27T10:00:55;101806.31;;;14.86;40.53
62708;BME280;48769;51.624;5.886;2023-04-27T10:08:35;101792.94;;;15.35;39.85
62708;BME280;48769;51.624;5.886;2023-04-27T10:11:00;101789.09;;;15.25;40.40
62708;BME280;48769;51.624;5.886;2023-04-27T10:13:37;101787.19;;;15.27;40.99
62708;BME280;48769;51.624;5.886;2023-04-27T10:16:16;101793.88;;;15.02;41.08
62708;BME280;48769;51.624;5.886;2023-04-27T10:18:50;101795.00;;;14.65;40.35
62708;BME280;48769;51.624;5.886;2023-04-27T10:21:17;101797.59;;;14.66;41.83
62708;BME280;48769;51.624;5.886;2023-04-27T10:23:46;101788.19;;;14.77;40.72
62708;BME280;48769;51.624;5.886;2023-04-27T10:26:20;101791.22;;;15.02;40.30
62708;BME280;48769;51.624;5.886;2023-04-27T10:31:27;101784.94;;;15.03;40.36
62708;BME280;48769;51.624;5.886;2023-04-27T10:33:53;101788.97;;;14.94;40.94
62708;BME280;48769;51.624;5.886;2023-04-27T10:36:38;101788.69;;;14.67;40.38
62708;BME280;48769;51.624;5.886;2023-04-27T10:39:21;101780.78;;;14.82;38.98
62708;BME280;48769;51.624;5.886;2023-04-27T10:41:53;101782.78;;;14.94;39.12
62708;BME280;48769;51.624;5.886;2023-04-27T10:44:26;101775.50;;;15.13;38.25
62708;BME280;48769;51.624;5.886;2023-04-27T10:47:00;101789.91;;;14.93;38.70
62708;BME280;48769;51.624;5.886;2023-04-27T10:49:27;101795.94;;;15.13;39.51
62708;BME280;48769;51.624;5.886;2023-04-27T10:51:57;101785.44;;;14.94;38.20
62708;BME280;48769;51.624;5.886;2023-04-27T10:54:27;101776.19;;;15.33;39.27
62708;BME280;48769;51.624;5.886;2023-04-27T10:56:52;101779.66;;;15.67;39.58
62708;BME280;48769;51.624;5.886;2023-04-27T10:59:18;101775.50;;;15.45;39.44
62708;BME280;48769;51.624;5.886;2023-04-27T11:01:47;101775.84;;;15.71;39.37
62708;BME280;48769;51.624;5.886;2023-04-27T11:04:12;101769.16;;;15.32;37.74
62708;BME280;48769;51.624;5.886;2023-04-27T11:06:42;101762.13;;;15.31;37.77
62708;BME280;48769;51.624;5.886;2023-04-27T11:09:08;101761.38;;;15.75;38.26
62708;BME280;48769;51.624;5.886;2023-04-27T11:11:35;101764.16;;;16.18;36.56
62708;BME280;48769;51.624;5.886;2023-04-27T11:14:00;101756.00;;;16.35;37.35
62708;BME280;48769;51.624;5.886;2023-04-27T11:16:27;101754.84;;;16.53;37.19
62708;BME280;48769;51.624;5.886;2023-04-27T11:18:52;101743.03;;;16.72;35.18
62708;BME280;48769;51.624;5.886;2023-04-27T11:21:18;101752.69;;;16.46;36.01
62708;BME280;48769;51.624;5.886;2023-04-27T11:23:45;101738.28;;;16.34;36.36
62708;BME280;48769;51.624;5.886;2023-04-27T11:26:15;101742.50;;;16.81;36.12
62708;BME280;48769;51.624;5.886;2023-04-27T11:28:42;101739.03;;;16.50;36.14
62708;BME280;48769;51.624;5.886;2023-04-27T11:31:08;101732.56;;;16.97;34.87
62708;BME280;48769;51.624;5.886;2023-04-27T11:33:34;101717.72;;;16.79;33.84
62708;BME280;48769;51.624;5.886;2023-04-27T11:35:59;101719.81;;;16.45;33.75
62708;BME280;48769;51.624;5.886;2023-04-27T11:38:25;101716.94;;;16.34;34.21
62708;BME280;48769;51.624;5.886;2023-04-27T11:41:06;101716.72;;;16.08;33.27
62708;BME280;48769;51.624;5.886;2023-04-27T11:43:32;101719.19;;;15.97;34.83
62708;BME280;48769;51.624;5.886;2023-04-27T11:46:01;101723.31;;;15.73;35.29
62708;BME280;48769;51.624;5.886;2023-04-27T11:48:27;101711.00;;;15.86;35.12
62708;BME280;48769;51.624;5.886;2023-04-27T11:50:56;101708.63;;;15.65;33.20
62708;BME280;48769;51.624;5.886;2023-04-27T11:53:33;101712.72;;;15.87;34.56
62708;BME280;48769;51.624;5.886;2023-04-27T11:56:00;101719.53;;;15.77;34.87
62708;BME280;48769;51.624;5.886;2023-04-27T11:58:27;101714.47;;;15.56;33.99
62708;BME280;48769;51.624;5.886;2023-04-27T12:00:55;101696.44;;;15.31;33.78
62708;BME280;48769;51.624;5.886;2023-04-27T12:03:21;101712.41;;;15.61;34.03
62708;BME280;48769;51.624;5.886;2023-04-27T12:05:47;101700.84;;;15.93;33.86
62708;BME280;48769;51.624;5.886;2023-04-27T12:08:17;101701.50;;;16.82;31.98
62708;BME280;48769;51.624;5.886;2023-04-27T12:10:43;101697.66;;;17.00;31.27
62708;BME280;48769;51.624;5.886;2023-04-27T12:13:08;101706.22;;;17.05;32.82
62708;BME280;48769;51.624;5.886;2023-04-27T12:15:33;101703.34;;;16.67;33.13
62708;BME280;48769;51.624;5.886;2023-04-27T12:17:59;101712.75;;;16.44;32.55
62708;BME280;48769;51.624;5.886;2023-04-27T12:20:24;101719.25;;;16.54;35.27
62708;BME280;48769;51.624;5.886;2023-04-27T12:22:50;101707.41;;;16.44;33.12
62708;BME280;48769;51.624;5.886;2023-04-27T12:25:15;101705.69;;;16.86;34.09
62708;BME280;48769;51.624;5.886;2023-04-27T12:27:42;101703.59;;;17.18;33.14
62708;BME280;48769;51.624;5.886;2023-04-27T12:30:08;101692.28;;;17.15;32.34
62708;BME280;48769;51.624;5.886;2023-04-27T12:32:33;101700.97;;;17.58;33.96
62708;BME280;48769;51.624;5.886;2023-04-27T12:34:59;101703.13;;;17.66;34.27
62708;BME280;48769;51.624;5.886;2023-04-27T12:37:24;101700.97;;;17.71;33.28
62708;BME280;48769;51.624;5.886;2023-04-27T12:39:50;101688.25;;;17.62;32.63
62708;BME280;48769;51.624;5.886;2023-04-27T12:42:15;101697.94;;;17.50;32.76
62708;BME280;48769;51.624;5.886;2023-04-27T12:44:43;101702.91;;;17.29;33.79
62708;BME280;48769;51.624;5.886;2023-04-27T12:47:08;101699.44;;;17.54;33.10
62708;BME280;48769;51.624;5.886;2023-04-27T12:49:34;101703.81;;;17.15;32.59
62708;BME280;48769;51.624;5.886;2023-04-27T12:52:00;101707.00;;;17.47;33.68
62708;BME280;48769;51.624;5.886;2023-04-27T12:54:25;101703.56;;;17.33;32.75
62708;BME280;48769;51.624;5.886;2023-04-27T12:56:51;101703.31;;;17.63;32.65